Time;durP1;ratioP1;P1;durP2;ratioP2;P2;SDS_P1;SDS_P2;PMS_P1;PMS_P2;Temp;Humidity;BMP_temperature;BMP_pressure;BME280_temperature;BME280_humidity;BME280_pressure;Samples;Min_cycle;Max_cycle;Signal;HPM_P1;HPM_P2
2022/07/07 00:00:59;;;;;;;7.57;1.92;;;;;;;15.63;87.28;101005.38;20830027;28;20053;-66
2022/07/07 00:11:01;;;;;;;5.53;1.55;;;;;;;15.65;87.87;100987.72;20829349;28;20152;-67
2022/07/07 00:21:02;;;;;;;3.33;1.50;;;;;;;15.63;91.73;100979.00;20828951;28;20459;-67
2022/07/07 00:31:04;;;;;;;5.38;1.60;;;;;;;15.72;92.25;100966.47;20826960;28;20498;-67
2022/07/07 00:41:06;;;;;;;4.70;1.73;;;;;;;15.64;92.65;100972.81;20827191;28;20435;-67
2022/07/07 00:51:12;;;;;;;8.60;1.85;;;;;;;15.48;95.72;100967.97;20826658;28;20045;-67
2022/07/07 01:01:13;;;;;;;5.38;1.65;;;;;;;15.26;98.25;100957.97;20825606;28;20045;-67
2022/07/07 01:11:15;;;;;;;4.85;1.65;;;;;;;15.08;99.81;100951.38;20825411;28;20052;-67
2022/07/07 01:21:20;;;;;;;4.53;1.90;;;;;;;14.94;100.00;100944.72;20824935;28;20086;-66
2022/07/07 01:31:22;;;;;;;4.30;1.90;;;;;;;14.67;100.00;100941.00;20823883;28;20477;-67
2022/07/07 01:41:23;;;;;;;3.53;1.70;;;;;;;14.60;100.00;100951.66;20823054;28;20084;-67
2022/07/07 01:51:25;;;;;;;5.15;1.80;;;;;;;14.20;100.00;100945.56;20822474;28;20047;-67
2022/07/07 02:01:26;;;;;;;4.38;1.75;;;;;;;14.31;100.00;100927.75;20821033;28;20123;-67
2022/07/07 02:11:28;;;;;;;3.65;2.15;;;;;;;14.39;100.00;100925.81;20820586;28;20053;-67
2022/07/07 02:21:30;;;;;;;6.30;2.03;;;;;;;14.41;100.00;100925.75;20820229;28;20049;-67
2022/07/07 02:31:32;;;;;;;3.75;1.73;;;;;;;14.50;100.00;100915.91;20819376;28;20053;-67
2022/07/07 02:41:33;;;;;;;3.35;2.00;;;;;;;14.61;100.00;100911.25;20818239;28;20045;-67
2022/07/07 02:51:35;;;;;;;5.43;2.17;;;;;;;14.54;100.00;100893.00;20818635;28;20599;-67
2022/07/07 03:01:36;;;;;;;5.28;2.53;;;;;;;14.34;100.00;100909.25;20817647;28;20045;-66
2022/07/07 03:11:38;;;;;;;4.95;2.35;;;;;;;14.16;100.00;100920.19;20817795;28;20406;-67
2022/07/07 03:21:39;;;;;;;7.30;2.75;;;;;;;14.12;100.00;100900.94;20817926;28;20433;-67
2022/07/07 03:31:41;;;;;;;5.78;2.90;;;;;;;14.10;100.00;100898.34;20817472;28;20042;-66
2022/07/07 03:41:43;;;;;;;8.27;2.92;;;;;;;14.09;100.00;100886.09;20816983;28;20050;-66
2022/07/07 03:51:44;;;;;;;7.22;2.50;;;;;;;13.96;100.00;100904.81;20816237;28;20045;-67
2022/07/07 04:01:46;;;;;;;5.28;2.60;;;;;;;13.86;100.00;100894.50;20815713;28;20050;-67
2022/07/07 04:11:47;;;;;;;4.57;2.25;;;;;;;14.10;100.00;100897.50;20825012;28;20050;-67
2022/07/07 04:21:49;;;;;;;7.75;2.88;;;;;;;14.15;100.00;100907.94;20925468;23;20052;-75
2022/07/07 04:31:50;;;;;;;6.57;2.50;;;;;;;14.51;100.00;100903.59;20994904;28;20045;-74
2022/07/07 04:41:52;;;;;;;5.25;2.60;;;;;;;14.75;100.00;100886.31;20994620;28;20486;-74
2022/07/07 04:51:54;;;;;;;6.10;2.40;;;;;;;14.87;100.00;100876.34;20993711;28;20045;-74
2022/07/07 05:01:55;;;;;;;7.32;2.53;;;;;;;15.12;100.00;100873.91;20992857;28;20045;-74
2022/07/07 05:11:57;;;;;;;6.28;2.30;;;;;;;15.25;98.84;100861.25;20992518;28;20044;-75
2022/07/07 05:21:58;;;;;;;7.13;2.20;;;;;;;15.46;96.16;100865.06;20990417;28;20097;-75
2022/07/07 05:32:00;;;;;;;9.10;2.70;;;;;;;15.96;93.49;100875.09;20990332;28;20051;-75
2022/07/07 05:42:02;;;;;;;4.10;2.00;;;;;;;15.89;95.35;100875.25;20989070;28;20048;-75
2022/07/07 05:52:04;;;;;;;3.65;2.10;;;;;;;16.16;94.71;100870.91;20988260;28;20056;-75
2022/07/07 06:02:06;;;;;;;6.60;2.03;;;;;;;16.49;91.34;100860.19;20986900;28;20044;-75
2022/07/07 06:12:08;;;;;;;4.78;2.20;;;;;;;16.47;92.04;100861.13;20986744;28;20106;-75
2022/07/07 06:22:09;;;;;;;8.27;2.20;;;;;;;16.40;94.02;100877.22;20985465;28;20053;-74
2022/07/07 06:32:11;;;;;;;4.90;2.05;;;;;;;16.42;95.16;100863.94;20984406;28;20055;-77
2022/07/07 06:42:12;;;;;;;5.00;2.03;;;;;;;16.50;94.50;100869.84;20971985;28;20493;-74
2022/07/07 06:52:14;;;;;;;4.95;1.75;;;;;;;16.56;94.43;100861.69;20975881;28;20040;-74
2022/07/07 07:02:16;;;;;;;7.95;2.30;;;;;;;16.86;93.19;100853.69;20971383;28;20044;-75
2022/07/07 07:12:17;;;;;;;7.82;2.35;;;;;;;17.44;89.27;100872.81;20930836;28;20512;-74
2022/07/07 07:22:19;;;;;;;7.88;2.08;;;;;;;17.70;87.01;100882.41;20920448;28;20045;-74
2022/07/07 07:32:20;;;;;;;5.13;2.00;;;;;;;17.70;89.37;100891.22;20926338;28;20048;-74
2022/07/07 07:42:22;;;;;;;7.15;2.20;;;;;;;17.61;91.91;100903.94;20933599;28;20110;-74
2022/07/07 07:52:23;;;;;;;7.35;2.25;;;;;;;17.55;93.81;100922.72;20932108;28;20049;-74
2022/07/07 08:02:25;;;;;;;8.93;2.20;;;;;;;17.69;94.13;100921.28;20998366;28;20055;-79
2022/07/07 08:12:26;;;;;;;7.95;1.95;;;;;;;17.93;93.40;100914.25;20937826;28;20660;-80
2022/07/07 08:22:28;;;;;;;6.13;2.03;;;;;;;18.10;94.12;100907.41;20930874;28;20088;-77
2022/07/07 08:32:29;;;;;;;8.48;2.47;;;;;;;18.63;90.21;100877.88;20916483;28;20087;-77
2022/07/07 08:42:31;;;;;;;5.85;2.10;;;;;;;19.60;83.51;100854.25;20903867;28;20183;-76
2022/07/07 08:52:32;;;;;;;6.28;2.30;;;;;;;19.55;85.11;100848.25;20900496;28;20056;-79
2022/07/07 09:02:34;;;;;;;7.75;2.10;;;;;;;20.57;78.45;100861.16;20900513;28;20056;-75
2022/07/07 09:12:36;;;;;;;4.03;2.00;;;;;;;20.65;77.23;100864.28;20929206;28;20099;-76
2022/07/07 09:22:55;;;;;;;8.43;2.17;;;;;;;20.06;83.17;100869.81;20984702;28;20083;-74
2022/07/07 09:33:06;;;;;;;5.60;2.20;;;;;;;20.32;82.75;100852.63;20982343;28;20040;-75
2022/07/07 09:43:08;;;;;;;5.25;1.80;;;;;;;20.74;83.23;100829.25;20935297;28;20080;-75
2022/07/07 09:53:09;;;;;;;4.68;2.10;;;;;;;21.37;77.85;100831.31;20897741;28;20056;-75
2022/07/07 10:03:11;;;;;;;5.32;2.33;;;;;;;21.59;77.18;100848.78;20897222;28;20516;-74
2022/07/07 10:13:16;;;;;;;5.75;1.85;;;;;;;21.49;80.36;100851.94;20929065;28;20044;-76
2022/07/07 10:23:32;;;;;;;3.83;1.50;;;;;;;21.44;77.59;100869.97;20893487;28;20127;-66
2022/07/07 10:33:34;;;;;;;4.57;1.70;;;;;;;21.65;75.32;100869.75;20977261;28;20049;-67
2022/07/07 10:43:42;;;;;;;6.97;2.00;;;;;;;22.17;70.45;100865.09;20975984;28;20079;-68
2022/07/07 10:53:58;;;;;;;6.00;1.92;;;;;;;22.69;67.92;100862.09;20976482;28;20416;-66
2022/07/07 11:04:00;;;;;;;5.40;2.50;;;;;;;22.55;67.56;100880.72;20976136;28;20052;-65
2022/07/07 11:14:08;;;;;;;5.28;1.90;;;;;;;22.62;68.47;100879.44;20975281;28;20135;-67
2022/07/07 11:24:21;;;;;;;6.18;1.90;;;;;;;22.14;72.23;100878.63;20991334;28;20052;-68
2022/07/07 11:34:22;;;;;;;5.82;1.95;;;;;;;21.80;73.50;100884.03;20990419;28;20055;-67
2022/07/07 11:44:24;;;;;;;5.30;2.22;;;;;;;21.86;72.84;100875.75;20990231;28;20045;-68
2022/07/07 11:54:26;;;;;;;7.57;1.80;;;;;;;21.70;74.87;100908.56;20989352;28;20055;-67
2022/07/07 12:04:27;;;;;;;3.72;1.58;;;;;;;21.99;72.84;100906.97;20989282;28;20541;-67
2022/07/07 12:14:29;;;;;;;3.67;1.80;;;;;;;22.74;69.39;100905.38;20945481;28;20151;-69
2022/07/07 12:24:33;;;;;;;6.47;1.90;;;;;;;22.77;67.36;100894.53;20906053;28;20498;-68
2022/07/07 12:34:54;;;;;;;4.97;1.43;;;;;;;23.14;66.04;100900.41;20926916;28;20040;-68
2022/07/07 12:45:12;;;;;;;5.43;1.70;;;;;;;22.74;69.35;100905.38;20985638;28;20059;-69
2022/07/07 12:55:14;;;;;;;4.82;1.60;;;;;;;22.98;67.96;100910.28;20985326;28;20048;-69
2022/07/07 13:05:18;;;;;;;4.50;1.65;;;;;;;22.26;75.28;100930.41;20983805;28;20056;-68
2022/07/07 13:15:20;;;;;;;4.00;1.80;;;;;;;22.09;79.44;100935.81;20933694;28;20047;-68
2022/07/07 13:25:22;;;;;;;3.08;1.38;;;;;;;22.41;74.01;100936.69;20900313;28;20049;-68
2022/07/07 13:35:24;;;;;;;3.50;1.30;;;;;;;21.99;74.00;100954.97;20899463;28;20041;-66
2022/07/07 13:45:26;;;;;;;3.22;1.10;;;;;;;21.62;75.53;100973.88;20898231;28;20060;-66
2022/07/07 13:55:27;;;;;;;3.92;0.80;;;;;;;21.48;71.09;100982.59;20900642;28;20485;-66
2022/07/07 14:05:29;;;;;;;0.60;0.50;;;;;;;21.39;72.39;100988.38;20896415;28;20049;-66
2022/07/07 14:15:30;;;;;;;1.17;0.88;;;;;;;21.81;66.73;100998.63;20895841;28;20552;-67
2022/07/07 14:25:32;;;;;;;1.25;0.60;;;;;;;21.55;60.88;101001.78;20951657;28;20135;-68
2022/07/07 14:35:41;;;;;;;2.20;0.60;;;;;;;21.70;56.15;101003.63;20976354;28;20044;-67
2022/07/07 14:45:42;;;;;;;1.50;0.50;;;;;;;22.03;54.70;101000.97;20975563;28;20048;-67
2022/07/07 14:55:44;;;;;;;3.63;0.80;;;;;;;22.11;54.05;101008.56;20974161;28;20049;-68
2022/07/07 15:05:46;;;;;;;2.05;0.77;;;;;;;22.45;53.96;101007.63;20975787;28;20053;-67
2022/07/07 15:15:48;;;;;;;1.98;0.75;;;;;;;22.32;51.71;101011.91;20922197;28;20053;-68
2022/07/07 15:25:50;;;;;;;4.75;1.25;;;;;;;22.11;54.26;101025.47;20891641;28;20060;-67
2022/07/07 15:35:54;;;;;;;1.52;0.50;;;;;;;21.55;56.23;101021.28;20891691;28;20056;-68
2022/07/07 15:46:03;;;;;;;2.53;0.50;;;;;;;21.71;56.96;101043.56;20891843;28;20512;-66
2022/07/07 15:56:05;;;;;;;2.20;0.70;;;;;;;21.64;58.17;101066.13;20892128;28;20041;-65
2022/07/07 16:06:07;;;;;;;3.72;0.70;;;;;;;21.86;56.81;101059.69;20899124;28;20053;-66
2022/07/07 16:16:08;;;;;;;2.25;0.60;;;;;;;21.58;55.74;101062.91;20961220;28;20063;-65
2022/07/07 16:26:10;;;;;;;2.15;0.50;;;;;;;21.40;57.54;101083.34;20987475;28;20044;-66
2022/07/07 16:36:11;;;;;;;2.72;0.70;;;;;;;21.05;59.95;101093.91;20984557;28;20051;-65
2022/07/07 16:46:13;;;;;;;2.20;0.70;;;;;;;20.98;61.33;101090.69;20986155;28;20486;-66
2022/07/07 16:56:17;;;;;;;2.08;0.60;;;;;;;20.96;63.05;101107.66;20980594;28;20055;-65
2022/07/07 17:06:20;;;;;;;4.18;1.00;;;;;;;20.90;64.73;101119.47;20909673;28;20257;-66
2022/07/07 17:16:22;;;;;;;1.23;0.50;;;;;;;20.71;64.52;101119.47;20957906;28;20489;-66
2022/07/07 17:26:23;;;;;;;4.13;0.82;;;;;;;20.44;66.85;101128.66;20983322;28;20052;-66
2022/07/07 17:36:25;;;;;;;4.03;1.10;;;;;;;20.55;67.38;101134.38;20981844;28;20055;-65
2022/07/07 17:46:26;;;;;;;1.35;0.55;;;;;;;20.48;68.94;101128.47;20981257;28;20052;-65
2022/07/07 17:56:28;;;;;;;2.58;0.80;;;;;;;20.49;68.57;101140.84;20981291;28;20049;-65
2022/07/07 18:06:30;;;;;;;5.18;0.70;;;;;;;20.41;69.83;101142.09;20978868;28;20053;-66
2022/07/07 18:16:32;;;;;;;2.42;0.60;;;;;;;20.38;70.84;101148.41;20919803;28;20053;-67
2022/07/07 18:26:34;;;;;;;2.80;0.68;;;;;;;20.34;71.28;101151.28;20894958;28;20085;-67
2022/07/07 18:36:36;;;;;;;2.38;0.70;;;;;;;20.18;72.37;101170.56;20894052;28;20051;-68
2022/07/07 18:46:37;;;;;;;1.52;0.63;;;;;;;20.09;74.28;101173.63;20893321;28;20060;-66
2022/07/07 18:56:39;;;;;;;2.15;0.90;;;;;;;19.94;74.50;101195.56;20894864;28;20151;-67
2022/07/07 19:06:41;;;;;;;1.48;0.60;;;;;;;19.82;75.86;101196.06;20891054;28;20052;-69
2022/07/07 19:16:44;;;;;;;2.45;0.80;;;;;;;19.79;76.12;101218.31;20893323;28;20144;-69
2022/07/07 19:26:47;;;;;;;2.38;0.75;;;;;;;19.81;76.30;101223.56;20892041;28;20136;-69
2022/07/07 19:36:48;;;;;;;2.10;0.85;;;;;;;19.49;77.69;101233.66;20892278;28;20048;-69
2022/07/07 19:46:50;;;;;;;2.22;0.70;;;;;;;19.45;79.12;101266.56;20908636;28;20425;-68
2022/07/07 19:56:52;;;;;;;2.53;0.60;;;;;;;19.41;79.50;101267.63;20907705;28;20073;-69
2022/07/07 20:06:54;;;;;;;0.98;0.57;;;;;;;19.25;81.54;101287.69;20905999;28;20548;-67
2022/07/07 20:16:55;;;;;;;2.40;0.68;;;;;;;19.19;83.06;101296.78;20967759;28;20056;-69
2022/07/07 20:26:57;;;;;;;2.35;0.60;;;;;;;19.20;83.07;101304.66;20987944;28;20048;-68
2022/07/07 20:36:59;;;;;;;2.38;0.90;;;;;;;19.20;83.52;101323.25;20986496;28;20040;-68
2022/07/07 20:47:01;;;;;;;1.58;0.70;;;;;;;19.19;83.99;101325.97;20985443;28;20063;-68
2022/07/07 20:57:08;;;;;;;1.23;0.50;;;;;;;19.15;83.68;101333.19;20985680;28;20194;-67
2022/07/07 21:07:11;;;;;;;1.25;0.70;;;;;;;19.00;84.84;101339.03;20984052;28;20505;-68
2022/07/07 21:17:13;;;;;;;1.67;0.70;;;;;;;18.99;85.41;101347.94;20918524;28;20053;-67
2022/07/07 21:27:15;;;;;;;1.60;0.70;;;;;;;18.91;85.70;101345.53;20898976;28;20049;-68
2022/07/07 21:37:16;;;;;;;2.35;0.90;;;;;;;18.86;85.97;101359.91;20899137;28;20051;-67
2022/07/07 21:47:18;;;;;;;1.45;0.73;;;;;;;18.67;88.71;101365.78;20898008;28;20060;-67
2022/07/07 21:57:20;;;;;;;1.75;0.80;;;;;;;18.41;89.18;101387.03;20898400;28;20053;-67
2022/07/07 22:07:21;;;;;;;2.25;0.90;;;;;;;18.43;87.78;101396.66;20949249;28;20056;-67
2022/07/07 22:17:24;;;;;;;2.20;0.88;;;;;;;18.22;89.93;101397.34;20985712;28;20040;-68
2022/07/07 22:27:25;;;;;;;2.17;0.93;;;;;;;18.23;90.29;101406.16;20985653;28;20045;-68
2022/07/07 22:37:27;;;;;;;2.53;1.00;;;;;;;17.96;92.91;101421.97;20985085;28;20050;-67
2022/07/07 22:47:36;;;;;;;3.10;1.00;;;;;;;17.60;89.94;101445.97;20985620;28;20437;-67
2022/07/07 22:57:38;;;;;;;6.25;1.77;;;;;;;17.38;80.10;101455.41;20984745;28;20511;-67
2022/07/07 23:07:39;;;;;;;6.38;1.75;;;;;;;17.25;72.42;101481.34;20983225;28;20071;-67
2022/07/07 23:17:40;;;;;;;11.63;1.88;;;;;;;17.07;69.42;101480.03;20996157;28;20064;-66
2022/07/07 23:27:42;;;;;;;8.25;1.80;;;;;;;16.91;69.15;101489.25;20999637;28;20053;-67
2022/07/07 23:37:44;;;;;;;11.02;1.92;;;;;;;16.53;72.05;101498.06;20998712;28;20056;-66
2022/07/07 23:47:45;;;;;;;6.60;1.75;;;;;;;16.35;72.76;101507.28;20998612;28;20053;-66
2022/07/07 23:57:47;;;;;;;6.63;1.48;;;;;;;16.13;75.06;101502.44;20997838;28;20048;-66
